sensor_id;sensor_type;location;lat;lon;timestamp;P1;durP1;ratioP1;P2;durP2;ratioP2
8161;SDS011;16778;48.154;15.094;2022-07-22T00:01:33;3.03;;;2.10;;
8161;SDS011;16778;48.154;15.094;2022-07-22T00:03:59;3.10;;;2.00;;
8161;SDS011;16778;48.154;15.094;2022-07-22T00:06:26;2.03;;;1.70;;
8161;SDS011;16778;48.154;15.094;2022-07-22T00:08:53;3.77;;;2.33;;
8161;SDS011;16778;48.154;15.094;2022-07-22T00:11:19;3.27;;;2.20;;
8161;SDS011;16778;48.154;15.094;2022-07-22T00:13:46;2.50;;;2.03;;
8161;SDS011;16778;48.154;15.094;2022-07-22T00:16:12;2.70;;;1.70;;
8161;SDS011;16778;48.154;15.094;2022-07-22T00:18:38;4.80;;;2.00;;
8161;SDS011;16778;48.154;15.094;2022-07-22T00:21:04;5.43;;;2.50;;
8161;SDS011;16778;48.154;15.094;2022-07-22T00:23:30;2.90;;;2.40;;
8161;SDS011;16778;48.154;15.094;2022-07-22T00:25:56;2.43;;;2.10;;
8161;SDS011;16778;48.154;15.094;2022-07-22T00:28:22;2.10;;;1.63;;
8161;SDS011;16778;48.154;15.094;2022-07-22T00:30:48;2.27;;;1.83;;
8161;SDS011;16778;48.154;15.094;2022-07-22T00:33:14;1.70;;;1.60;;
8161;SDS011;16778;48.154;15.094;2022-07-22T00:35:40;3.53;;;2.73;;
8161;SDS011;16778;48.154;15.094;2022-07-22T00:38:06;2.67;;;1.90;;
8161;SDS011;16778;48.154;15.094;2022-07-22T00:40:31;4.87;;;2.60;;
8161;SDS011;16778;48.154;15.094;2022-07-22T00:42:57;3.67;;;2.10;;
8161;SDS011;16778;48.154;15.094;2022-07-22T00:45:24;3.77;;;2.50;;
8161;SDS011;16778;48.154;15.094;2022-07-22T00:47:50;4.57;;;1.70;;
8161;SDS011;16778;48.154;15.094;2022-07-22T00:50:16;3.17;;;1.90;;
8161;SDS011;16778;48.154;15.094;2022-07-22T00:52:44;2.97;;;2.20;;
8161;SDS011;16778;48.154;15.094;2022-07-22T00:55:10;3.03;;;2.00;;
8161;SDS011;16778;48.154;15.094;2022-07-22T00:57:37;2.43;;;2.20;;
8161;SDS011;16778;48.154;15.094;2022-07-22T01:00:04;4.03;;;2.60;;
8161;SDS011;16778;48.154;15.094;2022-07-22T01:02:34;2.93;;;1.90;;
8161;SDS011;16778;48.154;15.094;2022-07-22T01:05:00;3.57;;;2.10;;
8161;SDS011;16778;48.154;15.094;2022-07-22T01:07:26;2.07;;;1.50;;
8161;SDS011;16778;48.154;15.094;2022-07-22T01:09:52;3.10;;;2.33;;
8161;SDS011;16778;48.154;15.094;2022-07-22T01:12:17;2.80;;;1.77;;
8161;SDS011;16778;48.154;15.094;2022-07-22T01:14:43;4.53;;;2.27;;
8161;SDS011;16778;48.154;15.094;2022-07-22T01:17:09;3.33;;;2.13;;
8161;SDS011;16778;48.154;15.094;2022-07-22T01:19:35;2.90;;;1.80;;
8161;SDS011;16778;48.154;15.094;2022-07-22T01:22:02;3.43;;;2.27;;
8161;SDS011;16778;48.154;15.094;2022-07-22T01:24:29;3.00;;;2.50;;
8161;SDS011;16778;48.154;15.094;2022-07-22T01:26:55;3.17;;;2.00;;
8161;SDS011;16778;48.154;15.094;2022-07-22T01:29:21;3.60;;;2.50;;
8161;SDS011;16778;48.154;15.094;2022-07-22T01:31:47;2.87;;;2.23;;
8161;SDS011;16778;48.154;15.094;2022-07-22T01:34:13;5.27;;;2.73;;
8161;SDS011;16778;48.154;15.094;2022-07-22T01:36:38;4.37;;;2.53;;
8161;SDS011;16778;48.154;15.094;2022-07-22T01:39:04;4.27;;;2.57;;
8161;SDS011;16778;48.154;15.094;2022-07-22T01:41:30;3.10;;;2.50;;
8161;SDS011;16778;48.154;15.094;2022-07-22T01:43:57;3.47;;;2.20;;
8161;SDS011;16778;48.154;15.094;2022-07-22T01:46:23;3.60;;;2.20;;
8161;SDS011;16778;48.154;15.094;2022-07-22T01:48:50;2.63;;;2.43;;
8161;SDS011;16778;48.154;15.094;2022-07-22T01:51:17;3.03;;;2.60;;
8161;SDS011;16778;48.154;15.094;2022-07-22T01:53:44;4.07;;;2.37;;
8161;SDS011;16778;48.154;15.094;2022-07-22T01:56:10;2.80;;;2.33;;
8161;SDS011;16778;48.154;15.094;2022-07-22T01:58:36;4.20;;;2.30;;
8161;SDS011;16778;48.154;15.094;2022-07-22T02:01:02;4.17;;;2.07;;
8161;SDS011;16778;48.154;15.094;2022-07-22T02:03:28;3.97;;;2.40;;
8161;SDS011;16778;48.154;15.094;2022-07-22T02:05:54;3.27;;;2.43;;
8161;SDS011;16778;48.154;15.094;2022-07-22T02:08:20;4.47;;;2.57;;
8161;SDS011;16778;48.154;15.094;2022-07-22T02:10:46;3.20;;;2.27;;
8161;SDS011;16778;48.154;15.094;2022-07-22T02:13:12;3.63;;;2.57;;
8161;SDS011;16778;48.154;15.094;2022-07-22T02:15:38;4.13;;;2.50;;
8161;SDS011;16778;48.154;15.094;2022-07-22T02:18:14;3.57;;;2.07;;
8161;SDS011;16778;48.154;15.094;2022-07-22T02:20:42;3.23;;;2.27;;
8161;SDS011;16778;48.154;15.094;2022-07-22T02:23:09;3.47;;;2.80;;
8161;SDS011;16778;48.154;15.094;2022-07-22T02:25:36;3.90;;;2.40;;
8161;SDS011;16778;48.154;15.094;2022-07-22T02:28:04;3.53;;;2.20;;
8161;SDS011;16778;48.154;15.094;2022-07-22T02:30:30;2.80;;;2.10;;
8161;SDS011;16778;48.154;15.094;2022-07-22T02:32:56;3.20;;;2.10;;
8161;SDS011;16778;48.154;15.094;2022-07-22T02:35:22;4.27;;;2.33;;
8161;SDS011;16778;48.154;15.094;2022-07-22T02:37:48;5.07;;;2.67;;
8161;SDS011;16778;48.154;15.094;2022-07-22T02:40:14;3.57;;;2.37;;
8161;SDS011;16778;48.154;15.094;2022-07-22T02:42:40;5.77;;;2.50;;
8161;SDS011;16778;48.154;15.094;2022-07-22T02:45:07;3.30;;;2.90;;
8161;SDS011;16778;48.154;15.094;2022-07-22T02:47:33;3.37;;;2.57;;
8161;SDS011;16778;48.154;15.094;2022-07-22T02:49:59;5.80;;;2.50;;
8161;SDS011;16778;48.154;15.094;2022-07-22T02:52:25;3.03;;;2.50;;
8161;SDS011;16778;48.154;15.094;2022-07-22T02:54:51;3.30;;;2.23;;
8161;SDS011;16778;48.154;15.094;2022-07-22T02:57:17;4.87;;;2.57;;
8161;SDS011;16778;48.154;15.094;2022-07-22T02:59:43;4.73;;;2.43;;
8161;SDS011;16778;48.154;15.094;2022-07-22T03:02:09;4.57;;;2.67;;
8161;SDS011;16778;48.154;15.094;2022-07-22T03:04:35;4.53;;;2.60;;
8161;SDS011;16778;48.154;15.094;2022-07-22T03:07:01;4.03;;;2.27;;
8161;SDS011;16778;48.154;15.094;2022-07-22T03:09:27;5.20;;;2.80;;
8161;SDS011;16778;48.154;15.094;2022-07-22T03:11:53;4.47;;;2.87;;
8161;SDS011;16778;48.154;15.094;2022-07-22T03:14:18;3.47;;;2.87;;
8161;SDS011;16778;48.154;15.094;2022-07-22T03:16:44;3.47;;;2.10;;
8161;SDS011;16778;48.154;15.094;2022-07-22T03:19:10;3.80;;;2.60;;
8161;SDS011;16778;48.154;15.094;2022-07-22T03:21:36;3.57;;;2.40;;
8161;SDS011;16778;48.154;15.094;2022-07-22T03:24:02;3.00;;;2.30;;
8161;SDS011;16778;48.154;15.094;2022-07-22T03:26:29;4.23;;;2.80;;
8161;SDS011;16778;48.154;15.094;2022-07-22T03:28:54;4.93;;;2.60;;
8161;SDS011;16778;48.154;15.094;2022-07-22T03:31:20;4.03;;;2.40;;
8161;SDS011;16778;48.154;15.094;2022-07-22T03:33:46;4.63;;;2.57;;
8161;SDS011;16778;48.154;15.094;2022-07-22T03:36:12;3.17;;;2.47;;
8161;SDS011;16778;48.154;15.094;2022-07-22T03:38:38;4.63;;;2.93;;
8161;SDS011;16778;48.154;15.094;2022-07-22T03:41:04;3.67;;;2.77;;
8161;SDS011;16778;48.154;15.094;2022-07-22T03:43:30;4.90;;;2.73;;
8161;SDS011;16778;48.154;15.094;2022-07-22T03:45:56;4.43;;;2.63;;
8161;SDS011;16778;48.154;15.094;2022-07-22T03:48:22;3.50;;;2.23;;
8161;SDS011;16778;48.154;15.094;2022-07-22T03:50:48;3.43;;;2.43;;
8161;SDS011;16778;48.154;15.094;2022-07-22T03:53:16;4.93;;;3.17;;
8161;SDS011;16778;48.154;15.094;2022-07-22T03:55:42;4.73;;;2.93;;
8161;SDS011;16778;48.154;15.094;2022-07-22T03:58:08;4.63;;;2.87;;
8161;SDS011;16778;48.154;15.094;2022-07-22T04:00:34;3.93;;;2.27;;
8161;SDS011;16778;48.154;15.094;2022-07-22T04:03:00;5.50;;;2.63;;
8161;SDS011;16778;48.154;15.094;2022-07-22T04:05:26;4.50;;;2.33;;
8161;SDS011;16778;48.154;15.094;2022-07-22T04:07:52;5.03;;;3.47;;
8161;SDS011;16778;48.154;15.094;2022-07-22T04:10:18;3.30;;;2.30;;
8161;SDS011;16778;48.154;15.094;2022-07-22T04:12:43;3.53;;;2.40;;
8161;SDS011;16778;48.154;15.094;2022-07-22T04:15:09;4.03;;;2.67;;
8161;SDS011;16778;48.154;15.094;2022-07-22T04:17:35;5.33;;;3.27;;
8161;SDS011;16778;48.154;15.094;2022-07-22T04:20:02;3.53;;;2.50;;
8161;SDS011;16778;48.154;15.094;2022-07-22T04:22:29;3.57;;;2.50;;
8161;SDS011;16778;48.154;15.094;2022-07-22T04:24:55;3.17;;;2.60;;
8161;SDS011;16778;48.154;15.094;2022-07-22T04:27:21;4.40;;;2.80;;
8161;SDS011;16778;48.154;15.094;2022-07-22T04:29:48;4.87;;;3.13;;
8161;SDS011;16778;48.154;15.094;2022-07-22T04:32:14;3.00;;;2.50;;
8161;SDS011;16778;48.154;15.094;2022-07-22T04:34:40;5.40;;;2.93;;
8161;SDS011;16778;48.154;15.094;2022-07-22T04:37:06;5.37;;;3.17;;
8161;SDS011;16778;48.154;15.094;2022-07-22T04:39:33;4.57;;;2.90;;
8161;SDS011;16778;48.154;15.094;2022-07-22T04:41:59;4.77;;;3.10;;
8161;SDS011;16778;48.154;15.094;2022-07-22T04:44:24;3.90;;;2.70;;
8161;SDS011;16778;48.154;15.094;2022-07-22T04:46:50;4.27;;;3.20;;
8161;SDS011;16778;48.154;15.094;2022-07-22T04:49:16;4.20;;;2.90;;
8161;SDS011;16778;48.154;15.094;2022-07-22T04:51:42;6.77;;;3.63;;
8161;SDS011;16778;48.154;15.094;2022-07-22T04:54:08;5.23;;;3.57;;
8161;SDS011;16778;48.154;15.094;2022-07-22T04:56:34;7.57;;;3.77;;
8161;SDS011;16778;48.154;15.094;2022-07-22T04:58:59;5.97;;;3.50;;
8161;SDS011;16778;48.154;15.094;2022-07-22T05:01:25;4.87;;;2.87;;
8161;SDS011;16778;48.154;15.094;2022-07-22T05:03:51;5.47;;;3.30;;
8161;SDS011;16778;48.154;15.094;2022-07-22T05:06:18;4.80;;;3.30;;
8161;SDS011;16778;48.154;15.094;2022-07-22T05:08:44;5.13;;;3.43;;
8161;SDS011;16778;48.154;15.094;2022-07-22T05:11:09;4.67;;;3.43;;
8161;SDS011;16778;48.154;15.094;2022-07-22T05:13:35;5.47;;;3.73;;
8161;SDS011;16778;48.154;15.094;2022-07-22T05:16:02;6.20;;;3.97;;
8161;SDS011;16778;48.154;15.094;2022-07-22T05:18:29;4.60;;;3.10;;
8161;SDS011;16778;48.154;15.094;2022-07-22T05:20:55;7.10;;;4.07;;
8161;SDS011;16778;48.154;15.094;2022-07-22T05:23:21;7.40;;;4.00;;
8161;SDS011;16778;48.154;15.094;2022-07-22T05:25:47;5.80;;;3.70;;
8161;SDS011;16778;48.154;15.094;2022-07-22T05:28:13;7.63;;;4.67;;
8161;SDS011;16778;48.154;15.094;2022-07-22T05:30:39;6.10;;;4.10;;
8161;SDS011;16778;48.154;15.094;2022-07-22T05:33:05;5.77;;;3.80;;
8161;SDS011;16778;48.154;15.094;2022-07-22T05:35:30;5.70;;;3.73;;
8161;SDS011;16778;48.154;15.094;2022-07-22T05:37:56;4.60;;;3.43;;
8161;SDS011;16778;48.154;15.094;2022-07-22T05:40:22;5.73;;;3.90;;
8161;SDS011;16778;48.154;15.094;2022-07-22T05:42:48;5.77;;;3.97;;
8161;SDS011;16778;48.154;15.094;2022-07-22T05:45:14;5.77;;;3.80;;
8161;SDS011;16778;48.154;15.094;2022-07-22T05:47:40;6.00;;;3.67;;
8161;SDS011;16778;48.154;15.094;2022-07-22T05:50:05;5.87;;;4.00;;
8161;SDS011;16778;48.154;15.094;2022-07-22T05:52:34;5.83;;;3.57;;
8161;SDS011;16778;48.154;15.094;2022-07-22T05:55:02;6.33;;;3.93;;
8161;SDS011;16778;48.154;15.094;2022-07-22T05:57:28;4.53;;;3.73;;
8161;SDS011;16778;48.154;15.094;2022-07-22T05:59:54;4.97;;;3.70;;
8161;SDS011;16778;48.154;15.094;2022-07-22T06:02:20;6.37;;;3.83;;
8161;SDS011;16778;48.154;15.094;2022-07-22T06:04:46;6.57;;;3.77;;
8161;SDS011;16778;48.154;15.094;2022-07-22T06:07:12;5.30;;;3.67;;
8161;SDS011;16778;48.154;15.094;2022-07-22T06:09:38;6.63;;;3.90;;
8161;SDS011;16778;48.154;15.094;2022-07-22T06:12:04;5.47;;;3.70;;
8161;SDS011;16778;48.154;15.094;2022-07-22T06:14:30;6.90;;;4.20;;
8161;SDS011;16778;48.154;15.094;2022-07-22T06:16:56;5.53;;;3.73;;
8161;SDS011;16778;48.154;15.094;2022-07-22T06:19:22;5.10;;;4.10;;
8161;SDS011;16778;48.154;15.094;2022-07-22T06:21:49;4.67;;;3.67;;
8161;SDS011;16778;48.154;15.094;2022-07-22T06:24:16;3.83;;;3.10;;
8161;SDS011;16778;48.154;15.094;2022-07-22T06:26:42;5.30;;;3.50;;
8161;SDS011;16778;48.154;15.094;2022-07-22T06:29:08;5.23;;;3.53;;
8161;SDS011;16778;48.154;15.094;2022-07-22T06:31:34;4.60;;;3.70;;
8161;SDS011;16778;48.154;15.094;2022-07-22T06:34:00;5.10;;;3.67;;
8161;SDS011;16778;48.154;15.094;2022-07-22T06:36:30;5.10;;;3.87;;
8161;SDS011;16778;48.154;15.094;2022-07-22T06:38:57;5.83;;;3.30;;
8161;SDS011;16778;48.154;15.094;2022-07-22T06:41:23;5.80;;;4.47;;
8161;SDS011;16778;48.154;15.094;2022-07-22T06:43:49;3.67;;;3.27;;
8161;SDS011;16778;48.154;15.094;2022-07-22T06:46:15;5.93;;;3.97;;
8161;SDS011;16778;48.154;15.094;2022-07-22T06:48:41;4.53;;;3.53;;
8161;SDS011;16778;48.154;15.094;2022-07-22T06:51:07;6.37;;;4.07;;
8161;SDS011;16778;48.154;15.094;2022-07-22T06:53:33;4.43;;;3.63;;
8161;SDS011;16778;48.154;15.094;2022-07-22T06:55:59;4.77;;;3.60;;
8161;SDS011;16778;48.154;15.094;2022-07-22T06:58:25;6.10;;;4.33;;
8161;SDS011;16778;48.154;15.094;2022-07-22T07:00:51;4.47;;;3.37;;
8161;SDS011;16778;48.154;15.094;2022-07-22T07:03:17;4.13;;;3.33;;
8161;SDS011;16778;48.154;15.094;2022-07-22T07:05:43;4.53;;;3.30;;
8161;SDS011;16778;48.154;15.094;2022-07-22T07:08:09;6.17;;;3.70;;
8161;SDS011;16778;48.154;15.094;2022-07-22T07:10:35;5.07;;;4.00;;
8161;SDS011;16778;48.154;15.094;2022-07-22T07:13:00;5.17;;;3.57;;
8161;SDS011;16778;48.154;15.094;2022-07-22T07:15:26;5.37;;;3.43;;
8161;SDS011;16778;48.154;15.094;2022-07-22T07:17:53;5.40;;;3.53;;
8161;SDS011;16778;48.154;15.094;2022-07-22T07:20:24;3.80;;;3.40;;
8161;SDS011;16778;48.154;15.094;2022-07-22T07:22:50;5.27;;;3.77;;
8161;SDS011;16778;48.154;15.094;2022-07-22T07:25:16;5.33;;;3.90;;
8161;SDS011;16778;48.154;15.094;2022-07-22T07:27:43;4.57;;;3.70;;
8161;SDS011;16778;48.154;15.094;2022-07-22T07:30:09;4.80;;;3.60;;
8161;SDS011;16778;48.154;15.094;2022-07-22T07:32:36;5.00;;;3.57;;
8161;SDS011;16778;48.154;15.094;2022-07-22T07:35:03;5.53;;;4.13;;
8161;SDS011;16778;48.154;15.094;2022-07-22T07:37:31;5.27;;;4.00;;
8161;SDS011;16778;48.154;15.094;2022-07-22T07:39:57;4.03;;;3.23;;
8161;SDS011;16778;48.154;15.094;2022-07-22T07:42:24;3.37;;;2.83;;
8161;SDS011;16778;48.154;15.094;2022-07-22T07:44:50;4.53;;;3.50;;
8161;SDS011;16778;48.154;15.094;2022-07-22T07:47:16;4.40;;;3.47;;
8161;SDS011;16778;48.154;15.094;2022-07-22T07:49:45;3.90;;;3.20;;
8161;SDS011;16778;48.154;15.094;2022-07-22T07:52:12;3.53;;;3.10;;
8161;SDS011;16778;48.154;15.094;2022-07-22T07:54:39;3.93;;;3.37;;
8161;SDS011;16778;48.154;15.094;2022-07-22T07:57:06;4.10;;;3.40;;
8161;SDS011;16778;48.154;15.094;2022-07-22T07:59:33;3.63;;;2.80;;
8161;SDS011;16778;48.154;15.094;2022-07-22T08:01:59;4.67;;;3.57;;
8161;SDS011;16778;48.154;15.094;2022-07-22T08:04:25;3.73;;;2.80;;
8161;SDS011;16778;48.154;15.094;2022-07-22T08:06:51;4.70;;;3.37;;
8161;SDS011;16778;48.154;15.094;2022-07-22T08:09:17;4.30;;;3.07;;
8161;SDS011;16778;48.154;15.094;2022-07-22T08:11:43;3.10;;;2.77;;
8161;SDS011;16778;48.154;15.094;2022-07-22T08:14:09;2.80;;;2.50;;
8161;SDS011;16778;48.154;15.094;2022-07-22T08:16:35;5.43;;;3.30;;
8161;SDS011;16778;48.154;15.094;2022-07-22T08:19:00;3.27;;;2.33;;
8161;SDS011;16778;48.154;15.094;2022-07-22T08:21:26;3.73;;;2.97;;
8161;SDS011;16778;48.154;15.094;2022-07-22T08:23:52;3.60;;;2.80;;
8161;SDS011;16778;48.154;15.094;2022-07-22T08:26:18;4.70;;;3.30;;
8161;SDS011;16778;48.154;15.094;2022-07-22T08:28:44;4.27;;;3.00;;
8161;SDS011;16778;48.154;15.094;2022-07-22T08:31:10;2.87;;;2.67;;
8161;SDS011;16778;48.154;15.094;2022-07-22T08:33:36;4.00;;;3.10;;
8161;SDS011;16778;48.154;15.094;2022-07-22T08:36:03;4.17;;;2.93;;
8161;SDS011;16778;48.154;15.094;2022-07-22T08:38:29;3.43;;;2.37;;
8161;SDS011;16778;48.154;15.094;2022-07-22T08:40:56;3.17;;;2.87;;
8161;SDS011;16778;48.154;15.094;2022-07-22T08:43:22;3.07;;;2.77;;
8161;SDS011;16778;48.154;15.094;2022-07-22T08:45:49;4.27;;;2.97;;
8161;SDS011;16778;48.154;15.094;2022-07-22T08:48:15;3.57;;;2.80;;
8161;SDS011;16778;48.154;15.094;2022-07-22T08:50:42;3.13;;;2.40;;
8161;SDS011;16778;48.154;15.094;2022-07-22T08:53:08;4.43;;;3.20;;
8161;SDS011;16778;48.154;15.094;2022-07-22T08:55:42;2.30;;;1.80;;
8161;SDS011;16778;48.154;15.094;2022-07-22T08:58:10;2.27;;;1.63;;
8161;SDS011;16778;48.154;15.094;2022-07-22T09:00:36;2.13;;;1.93;;
8161;SDS011;16778;48.154;15.094;2022-07-22T09:03:24;2.80;;;2.53;;
8161;SDS011;16778;48.154;15.094;2022-07-22T09:05:53;2.07;;;1.87;;
8161;SDS011;16778;48.154;15.094;2022-07-22T09:08:20;2.27;;;2.00;;
8161;SDS011;16778;48.154;15.094;2022-07-22T09:10:47;3.43;;;2.47;;
8161;SDS011;16778;48.154;15.094;2022-07-22T09:13:14;2.70;;;2.33;;
8161;SDS011;16778;48.154;15.094;2022-07-22T09:15:49;2.63;;;2.37;;
8161;SDS011;16778;48.154;15.094;2022-07-22T09:18:20;3.27;;;2.53;;
8161;SDS011;16778;48.154;15.094;2022-07-22T09:20:46;3.37;;;2.70;;
8161;SDS011;16778;48.154;15.094;2022-07-22T09:23:13;3.23;;;2.23;;
8161;SDS011;16778;48.154;15.094;2022-07-22T09:25:47;3.63;;;2.30;;
8161;SDS011;16778;48.154;15.094;2022-07-22T09:28:15;2.97;;;2.13;;
8161;SDS011;16778;48.154;15.094;2022-07-22T09:30:48;3.33;;;2.17;;
8161;SDS011;16778;48.154;15.094;2022-07-22T09:33:17;4.07;;;2.40;;
8161;SDS011;16778;48.154;15.094;2022-07-22T09:35:44;4.40;;;2.87;;
8161;SDS011;16778;48.154;15.094;2022-07-22T09:38:11;2.87;;;2.43;;
8161;SDS011;16778;48.154;15.094;2022-07-22T09:40:40;4.03;;;1.97;;
8161;SDS011;16778;48.154;15.094;2022-07-22T09:43:15;3.27;;;2.33;;
8161;SDS011;16778;48.154;15.094;2022-07-22T09:48:19;2.40;;;2.10;;
8161;SDS011;16778;48.154;15.094;2022-07-22T09:50:47;2.80;;;1.93;;
8161;SDS011;16778;48.154;15.094;2022-07-22T09:53:15;3.20;;;2.40;;
8161;SDS011;16778;48.154;15.094;2022-07-22T09:55:44;2.33;;;2.13;;
8161;SDS011;16778;48.154;15.094;2022-07-22T09:58:10;3.63;;;2.87;;
8161;SDS011;16778;48.154;15.094;2022-07-22T10:00:37;2.30;;;2.03;;
8161;SDS011;16778;48.154;15.094;2022-07-22T10:03:06;2.93;;;2.57;;
8161;SDS011;16778;48.154;15.094;2022-07-22T10:05:37;3.77;;;2.20;;
8161;SDS011;16778;48.154;15.094;2022-07-22T10:08:05;2.30;;;2.10;;
8161;SDS011;16778;48.154;15.094;2022-07-22T10:10:33;2.67;;;2.43;;
8161;SDS011;16778;48.154;15.094;2022-07-22T10:13:03;2.20;;;2.00;;
8161;SDS011;16778;48.154;15.094;2022-07-22T10:15:31;4.43;;;2.73;;
8161;SDS011;16778;48.154;15.094;2022-07-22T10:17:59;2.47;;;2.27;;
8161;SDS011;16778;48.154;15.094;2022-07-22T10:20:32;2.63;;;2.10;;
8161;SDS011;16778;48.154;15.094;2022-07-22T10:25:31;2.43;;;1.93;;
8161;SDS011;16778;48.154;15.094;2022-07-22T10:28:32;2.30;;;1.83;;
8161;SDS011;16778;48.154;15.094;2022-07-22T10:33:53;4.07;;;1.90;;
8161;SDS011;16778;48.154;15.094;2022-07-22T10:39:11;3.20;;;2.30;;
8161;SDS011;16778;48.154;15.094;2022-07-22T10:41:43;3.27;;;2.30;;
8161;SDS011;16778;48.154;15.094;2022-07-22T10:44:10;2.67;;;2.10;;
8161;SDS011;16778;48.154;15.094;2022-07-22T10:49:16;2.40;;;2.17;;
8161;SDS011;16778;48.154;15.094;2022-07-22T10:57:42;3.07;;;2.43;;
8161;SDS011;16778;48.154;15.094;2022-07-22T11:00:08;2.33;;;2.10;;
8161;SDS011;16778;48.154;15.094;2022-07-22T11:02:35;2.50;;;2.20;;
8161;SDS011;16778;48.154;15.094;2022-07-22T11:05:03;2.13;;;1.83;;
8161;SDS011;16778;48.154;15.094;2022-07-22T11:07:30;3.17;;;2.30;;
8161;SDS011;16778;48.154;15.094;2022-07-22T11:10:12;3.47;;;2.30;;
8161;SDS011;16778;48.154;15.094;2022-07-22T11:12:41;3.17;;;2.03;;
8161;SDS011;16778;48.154;15.094;2022-07-22T11:15:08;1.73;;;1.63;;
8161;SDS011;16778;48.154;15.094;2022-07-22T11:17:35;1.83;;;1.73;;
8161;SDS011;16778;48.154;15.094;2022-07-22T11:20:06;2.90;;;2.23;;
8161;SDS011;16778;48.154;15.094;2022-07-22T11:22:35;1.70;;;1.60;;
8161;SDS011;16778;48.154;15.094;2022-07-22T11:25:05;2.17;;;1.97;;
8161;SDS011;16778;48.154;15.094;2022-07-22T11:27:33;2.17;;;1.87;;
8161;SDS011;16778;48.154;15.094;2022-07-22T11:30:00;2.10;;;1.90;;
8161;SDS011;16778;48.154;15.094;2022-07-22T11:32:29;2.20;;;2.00;;
8161;SDS011;16778;48.154;15.094;2022-07-22T11:34:57;2.33;;;1.90;;
8161;SDS011;16778;48.154;15.094;2022-07-22T11:37:24;2.20;;;1.80;;
8161;SDS011;16778;48.154;15.094;2022-07-22T11:40:03;2.57;;;2.10;;
8161;SDS011;16778;48.154;15.094;2022-07-22T11:42:32;2.25;;;2.03;;
8161;SDS011;16778;48.154;15.094;2022-07-22T11:44:58;2.17;;;1.70;;
8161;SDS011;16778;48.154;15.094;2022-07-22T11:47:24;1.73;;;1.63;;
8161;SDS011;16778;48.154;15.094;2022-07-22T11:49:50;2.17;;;1.73;;
8161;SDS011;16778;48.154;15.094;2022-07-22T11:52:16;2.10;;;1.88;;
8161;SDS011;16778;48.154;15.094;2022-07-22T11:54:43;1.95;;;1.75;;
8161;SDS011;16778;48.154;15.094;2022-07-22T11:57:11;2.33;;;2.10;;
8161;SDS011;16778;48.154;15.094;2022-07-22T11:59:38;5.53;;;1.80;;
8161;SDS011;16778;48.154;15.094;2022-07-22T12:02:04;2.47;;;2.28;;
8161;SDS011;16778;48.154;15.094;2022-07-22T12:04:34;2.17;;;1.80;;
8161;SDS011;16778;48.154;15.094;2022-07-22T12:07:01;1.92;;;1.73;;
8161;SDS011;16778;48.154;15.094;2022-07-22T12:09:30;2.40;;;2.20;;
8161;SDS011;16778;48.154;15.094;2022-07-22T12:11:59;2.08;;;1.88;;
8161;SDS011;16778;48.154;15.094;2022-07-22T12:14:26;1.77;;;1.58;;
8161;SDS011;16778;48.154;15.094;2022-07-22T12:19:20;1.80;;;1.70;;
8161;SDS011;16778;48.154;15.094;2022-07-22T12:24:24;1.88;;;1.77;;
8161;SDS011;16778;48.154;15.094;2022-07-22T12:32:11;2.58;;;1.95;;
8161;SDS011;16778;48.154;15.094;2022-07-22T12:42:19;1.95;;;1.77;;
8161;SDS011;16778;48.154;15.094;2022-07-22T12:44:52;2.40;;;2.03;;
8161;SDS011;16778;48.154;15.094;2022-07-22T12:52:57;2.17;;;1.90;;
8161;SDS011;16778;48.154;15.094;2022-07-22T12:55:34;2.42;;;2.15;;
8161;SDS011;16778;48.154;15.094;2022-07-22T12:58:03;3.15;;;1.90;;
8161;SDS011;16778;48.154;15.094;2022-07-22T13:00:32;2.30;;;2.10;;
8161;SDS011;16778;48.154;15.094;2022-07-22T13:03:10;3.78;;;2.00;;
8161;SDS011;16778;48.154;15.094;2022-07-22T13:05:36;2.05;;;1.85;;
8161;SDS011;16778;48.154;15.094;2022-07-22T13:08:02;2.85;;;2.20;;
8161;SDS011;16778;48.154;15.094;2022-07-22T13:10:29;2.50;;;2.30;;
8161;SDS011;16778;48.154;15.094;2022-07-22T13:12:56;2.00;;;1.90;;
8161;SDS011;16778;48.154;15.094;2022-07-22T13:15:22;1.95;;;1.85;;
8161;SDS011;16778;48.154;15.094;2022-07-22T13:17:49;2.20;;;2.00;;
8161;SDS011;16778;48.154;15.094;2022-07-22T13:20:16;2.25;;;2.05;;
8161;SDS011;16778;48.154;15.094;2022-07-22T13:22:44;2.78;;;2.03;;
8161;SDS011;16778;48.154;15.094;2022-07-22T13:25:11;2.42;;;2.05;;
8161;SDS011;16778;48.154;15.094;2022-07-22T13:27:37;2.17;;;1.92;;
8161;SDS011;16778;48.154;15.094;2022-07-22T13:30:04;2.10;;;1.90;;
8161;SDS011;16778;48.154;15.094;2022-07-22T13:32:30;5.00;;;2.15;;
8161;SDS011;16778;48.154;15.094;2022-07-22T13:34:56;2.42;;;1.90;;
8161;SDS011;16778;48.154;15.094;2022-07-22T13:37:22;2.33;;;2.13;;
8161;SDS011;16778;48.154;15.094;2022-07-22T13:39:49;1.92;;;1.83;;
8161;SDS011;16778;48.154;15.094;2022-07-22T13:42:16;3.25;;;2.20;;
8161;SDS011;16778;48.154;15.094;2022-07-22T13:44:46;2.20;;;2.00;;
8161;SDS011;16778;48.154;15.094;2022-07-22T13:47:13;1.85;;;1.75;;
8161;SDS011;16778;48.154;15.094;2022-07-22T13:49:40;2.35;;;2.15;;
8161;SDS011;16778;48.154;15.094;2022-07-22T13:52:06;2.40;;;2.15;;
8161;SDS011;16778;48.154;15.094;2022-07-22T13:54:32;2.33;;;1.67;;
8161;SDS011;16778;48.154;15.094;2022-07-22T13:56:59;2.33;;;2.13;;
8161;SDS011;16778;48.154;15.094;2022-07-22T13:59:26;2.83;;;2.20;;
8161;SDS011;16778;48.154;15.094;2022-07-22T14:01:54;2.28;;;2.10;;
8161;SDS011;16778;48.154;15.094;2022-07-22T14:04:21;2.38;;;2.17;;
8161;SDS011;16778;48.154;15.094;2022-07-22T14:06:47;2.00;;;1.90;;
8161;SDS011;16778;48.154;15.094;2022-07-22T14:09:13;2.30;;;2.03;;
8161;SDS011;16778;48.154;15.094;2022-07-22T14:11:39;2.63;;;2.42;;
8161;SDS011;16778;48.154;15.094;2022-07-22T14:14:05;2.50;;;2.30;;
8161;SDS011;16778;48.154;15.094;2022-07-22T14:16:32;2.28;;;2.08;;
8161;SDS011;16778;48.154;15.094;2022-07-22T14:18:58;2.63;;;2.42;;
8161;SDS011;16778;48.154;15.094;2022-07-22T14:21:30;2.47;;;2.28;;
8161;SDS011;16778;48.154;15.094;2022-07-22T14:23:56;2.35;;;2.15;;
8161;SDS011;16778;48.154;15.094;2022-07-22T14:26:22;2.35;;;2.15;;
8161;SDS011;16778;48.154;15.094;2022-07-22T14:28:48;2.22;;;2.03;;
8161;SDS011;16778;48.154;15.094;2022-07-22T14:31:14;1.70;;;1.60;;
8161;SDS011;16778;48.154;15.094;2022-07-22T14:33:40;2.35;;;2.15;;
8161;SDS011;16778;48.154;15.094;2022-07-22T14:36:06;2.58;;;2.38;;
8161;SDS011;16778;48.154;15.094;2022-07-22T14:38:33;2.30;;;2.10;;
8161;SDS011;16778;48.154;15.094;2022-07-22T14:40:58;2.70;;;2.50;;
8161;SDS011;16778;48.154;15.094;2022-07-22T14:43:24;2.35;;;2.15;;
8161;SDS011;16778;48.154;15.094;2022-07-22T14:45:51;2.15;;;1.98;;
8161;SDS011;16778;48.154;15.094;2022-07-22T14:48:17;2.28;;;2.17;;
8161;SDS011;16778;48.154;15.094;2022-07-22T14:50:43;2.28;;;2.08;;
8161;SDS011;16778;48.154;15.094;2022-07-22T14:53:09;2.20;;;2.10;;
8161;SDS011;16778;48.154;15.094;2022-07-22T14:55:35;2.38;;;2.17;;
8161;SDS011;16778;48.154;15.094;2022-07-22T14:58:01;2.28;;;2.08;;
8161;SDS011;16778;48.154;15.094;2022-07-22T15:00:27;2.53;;;2.33;;
8161;SDS011;16778;48.154;15.094;2022-07-22T15:02:53;1.75;;;1.65;;
8161;SDS011;16778;48.154;15.094;2022-07-22T15:05:19;2.15;;;1.95;;
8161;SDS011;16778;48.154;15.094;2022-07-22T15:07:44;2.03;;;1.92;;
8161;SDS011;16778;48.154;15.094;2022-07-22T15:10:10;2.00;;;1.85;;
8161;SDS011;16778;48.154;15.094;2022-07-22T15:12:36;2.20;;;2.00;;
8161;SDS011;16778;48.154;15.094;2022-07-22T15:15:02;2.63;;;2.42;;
8161;SDS011;16778;48.154;15.094;2022-07-22T15:17:33;2.22;;;2.13;;
8161;SDS011;16778;48.154;15.094;2022-07-22T15:20:01;1.92;;;1.83;;
8161;SDS011;16778;48.154;15.094;2022-07-22T15:22:32;2.17;;;2.08;;
8161;SDS011;16778;48.154;15.094;2022-07-22T15:24:59;2.60;;;2.35;;
8161;SDS011;16778;48.154;15.094;2022-07-22T15:27:25;2.90;;;2.70;;
8161;SDS011;16778;48.154;15.094;2022-07-22T15:29:51;3.60;;;2.50;;